sensor_id;sensor_type;location;lat;lon;timestamp;P1;durP1;ratioP1;P2;durP2;ratioP2
57443;SDS011;43289;52.962;6.196;2022-12-29T00:00:49;5.47;;;4.00;;
57443;SDS011;43289;52.962;6.196;2022-12-29T00:03:15;7.93;;;3.58;;
57443;SDS011;43289;52.962;6.196;2022-12-29T00:05:41;6.97;;;4.35;;
57443;SDS011;43289;52.962;6.196;2022-12-29T00:08:07;6.18;;;4.35;;
57443;SDS011;43289;52.962;6.196;2022-12-29T00:10:33;6.30;;;4.68;;
57443;SDS011;43289;52.962;6.196;2022-12-29T00:12:59;6.03;;;4.15;;
57443;SDS011;43289;52.962;6.196;2022-12-29T00:15:44;6.72;;;4.43;;
57443;SDS011;43289;52.962;6.196;2022-12-29T00:18:10;5.65;;;4.22;;
57443;SDS011;43289;52.962;6.196;2022-12-29T00:20:36;5.82;;;4.72;;
57443;SDS011;43289;52.962;6.196;2022-12-29T00:23:21;6.15;;;4.65;;
57443;SDS011;43289;52.962;6.196;2022-12-29T00:26:11;7.03;;;4.78;;
57443;SDS011;43289;52.962;6.196;2022-12-29T00:28:56;5.68;;;4.82;;
57443;SDS011;43289;52.962;6.196;2022-12-29T00:31:41;6.20;;;4.32;;
57443;SDS011;43289;52.962;6.196;2022-12-29T00:34:25;5.82;;;4.38;;
57443;SDS011;43289;52.962;6.196;2022-12-29T00:37:10;6.00;;;4.10;;
57443;SDS011;43289;52.962;6.196;2022-12-29T00:39:36;5.38;;;4.22;;
57443;SDS011;43289;52.962;6.196;2022-12-29T00:42:21;5.20;;;4.35;;
57443;SDS011;43289;52.962;6.196;2022-12-29T00:45:05;5.68;;;4.15;;
57443;SDS011;43289;52.962;6.196;2022-12-29T00:50:55;5.32;;;4.20;;
57443;SDS011;43289;52.962;6.196;2022-12-29T00:53:21;5.82;;;4.07;;
57443;SDS011;43289;52.962;6.196;2022-12-29T00:55:47;5.70;;;4.18;;
57443;SDS011;43289;52.962;6.196;2022-12-29T00:58:13;7.25;;;4.30;;
57443;SDS011;43289;52.962;6.196;2022-12-29T01:00:39;7.82;;;3.70;;
57443;SDS011;43289;52.962;6.196;2022-12-29T01:06:13;4.68;;;3.55;;
57443;SDS011;43289;52.962;6.196;2022-12-29T01:08:40;6.15;;;4.10;;
57443;SDS011;43289;52.962;6.196;2022-12-29T01:11:07;5.80;;;3.90;;
57443;SDS011;43289;52.962;6.196;2022-12-29T01:13:34;6.05;;;3.95;;
57443;SDS011;43289;52.962;6.196;2022-12-29T01:16:00;6.70;;;3.65;;
57443;SDS011;43289;52.962;6.196;2022-12-29T01:18:26;4.85;;;3.55;;
57443;SDS011;43289;52.962;6.196;2022-12-29T01:21:03;6.55;;;4.40;;
57443;SDS011;43289;52.962;6.196;2022-12-29T01:23:29;5.32;;;3.90;;
57443;SDS011;43289;52.962;6.196;2022-12-29T01:25:55;4.78;;;3.55;;
57443;SDS011;43289;52.962;6.196;2022-12-29T01:28:21;6.43;;;3.33;;
57443;SDS011;43289;52.962;6.196;2022-12-29T01:30:48;5.25;;;3.50;;
57443;SDS011;43289;52.962;6.196;2022-12-29T01:33:14;4.55;;;3.50;;
57443;SDS011;43289;52.962;6.196;2022-12-29T01:35:40;5.57;;;3.60;;
57443;SDS011;43289;52.962;6.196;2022-12-29T01:38:06;5.35;;;3.60;;
57443;SDS011;43289;52.962;6.196;2022-12-29T01:40:33;5.47;;;3.42;;
57443;SDS011;43289;52.962;6.196;2022-12-29T01:42:59;4.45;;;3.20;;
57443;SDS011;43289;52.962;6.196;2022-12-29T01:45:25;4.55;;;3.03;;
57443;SDS011;43289;52.962;6.196;2022-12-29T01:47:58;4.10;;;3.05;;
57443;SDS011;43289;52.962;6.196;2022-12-29T01:53:47;4.32;;;3.00;;
57443;SDS011;43289;52.962;6.196;2022-12-29T01:56:14;4.45;;;2.90;;
57443;SDS011;43289;52.962;6.196;2022-12-29T01:58:42;5.22;;;2.85;;
57443;SDS011;43289;52.962;6.196;2022-12-29T02:01:10;8.23;;;3.50;;
57443;SDS011;43289;52.962;6.196;2022-12-29T02:03:36;4.32;;;2.92;;
57443;SDS011;43289;52.962;6.196;2022-12-29T02:06:04;7.43;;;2.60;;
57443;SDS011;43289;52.962;6.196;2022-12-29T02:08:33;4.35;;;2.90;;
57443;SDS011;43289;52.962;6.196;2022-12-29T02:10:59;3.88;;;2.58;;
57443;SDS011;43289;52.962;6.196;2022-12-29T02:13:27;4.55;;;2.50;;
57443;SDS011;43289;52.962;6.196;2022-12-29T02:18:32;5.07;;;2.80;;
57443;SDS011;43289;52.962;6.196;2022-12-29T02:26:13;4.80;;;2.40;;
57443;SDS011;43289;52.962;6.196;2022-12-29T02:28:53;3.35;;;2.28;;
57443;SDS011;43289;52.962;6.196;2022-12-29T02:31:26;4.30;;;2.35;;
57443;SDS011;43289;52.962;6.196;2022-12-29T02:34:07;6.95;;;2.40;;
57443;SDS011;43289;52.962;6.196;2022-12-29T02:36:39;3.65;;;2.20;;
57443;SDS011;43289;52.962;6.196;2022-12-29T02:42:03;4.47;;;2.05;;
57443;SDS011;43289;52.962;6.196;2022-12-29T02:44:52;2.55;;;1.70;;
57443;SDS011;43289;52.962;6.196;2022-12-29T02:47:35;2.85;;;1.73;;
57443;SDS011;43289;52.962;6.196;2022-12-29T02:50:13;5.32;;;1.85;;
57443;SDS011;43289;52.962;6.196;2022-12-29T02:52:48;2.53;;;1.40;;
57443;SDS011;43289;52.962;6.196;2022-12-29T02:55:15;3.03;;;1.98;;
57443;SDS011;43289;52.962;6.196;2022-12-29T02:57:41;4.70;;;2.17;;
57443;SDS011;43289;52.962;6.196;2022-12-29T03:00:08;3.80;;;2.20;;
57443;SDS011;43289;52.962;6.196;2022-12-29T03:10:17;3.45;;;1.80;;
57443;SDS011;43289;52.962;6.196;2022-12-29T03:12:47;5.18;;;2.00;;
57443;SDS011;43289;52.962;6.196;2022-12-29T03:15:34;3.78;;;1.90;;
57443;SDS011;43289;52.962;6.196;2022-12-29T03:18:30;2.97;;;1.70;;
57443;SDS011;43289;52.962;6.196;2022-12-29T03:21:02;3.47;;;1.75;;
57443;SDS011;43289;52.962;6.196;2022-12-29T03:23:29;3.45;;;1.95;;
57443;SDS011;43289;52.962;6.196;2022-12-29T03:25:56;3.90;;;1.80;;
57443;SDS011;43289;52.962;6.196;2022-12-29T03:28:25;3.25;;;1.50;;
57443;SDS011;43289;52.962;6.196;2022-12-29T03:30:53;5.38;;;2.13;;
57443;SDS011;43289;52.962;6.196;2022-12-29T03:33:24;4.10;;;2.03;;
57443;SDS011;43289;52.962;6.196;2022-12-29T03:35:51;2.95;;;1.23;;
57443;SDS011;43289;52.962;6.196;2022-12-29T03:40:49;4.00;;;1.92;;
57443;SDS011;43289;52.962;6.196;2022-12-29T03:43:16;5.60;;;2.20;;
57443;SDS011;43289;52.962;6.196;2022-12-29T03:45:42;4.80;;;1.98;;
57443;SDS011;43289;52.962;6.196;2022-12-29T03:48:08;2.78;;;1.60;;
57443;SDS011;43289;52.962;6.196;2022-12-29T03:50:34;4.63;;;2.47;;
57443;SDS011;43289;52.962;6.196;2022-12-29T03:53:00;2.78;;;1.60;;
57443;SDS011;43289;52.962;6.196;2022-12-29T03:55:26;7.80;;;3.10;;
57443;SDS011;43289;52.962;6.196;2022-12-29T03:57:52;3.67;;;1.85;;
57443;SDS011;43289;52.962;6.196;2022-12-29T04:00:18;2.72;;;1.65;;
57443;SDS011;43289;52.962;6.196;2022-12-29T04:02:44;3.45;;;1.55;;
57443;SDS011;43289;52.962;6.196;2022-12-29T04:05:10;4.55;;;1.50;;
57443;SDS011;43289;52.962;6.196;2022-12-29T04:07:36;4.57;;;1.48;;
57443;SDS011;43289;52.962;6.196;2022-12-29T04:10:02;6.68;;;1.38;;
57443;SDS011;43289;52.962;6.196;2022-12-29T04:12:28;5.53;;;1.02;;
57443;SDS011;43289;52.962;6.196;2022-12-29T04:14:54;5.45;;;1.42;;
57443;SDS011;43289;52.962;6.196;2022-12-29T04:20:44;3.30;;;0.70;;
57443;SDS011;43289;52.962;6.196;2022-12-29T04:23:25;3.17;;;1.73;;
57443;SDS011;43289;52.962;6.196;2022-12-29T04:25:54;3.53;;;1.30;;
57443;SDS011;43289;52.962;6.196;2022-12-29T04:28:20;7.40;;;1.50;;
57443;SDS011;43289;52.962;6.196;2022-12-29T04:30:46;4.20;;;1.27;;
57443;SDS011;43289;52.962;6.196;2022-12-29T04:33:12;5.07;;;1.50;;
57443;SDS011;43289;52.962;6.196;2022-12-29T04:35:45;3.05;;;1.10;;
57443;SDS011;43289;52.962;6.196;2022-12-29T04:38:30;2.80;;;1.40;;
57443;SDS011;43289;52.962;6.196;2022-12-29T04:41:09;2.85;;;1.40;;
57443;SDS011;43289;52.962;6.196;2022-12-29T04:43:45;3.03;;;1.38;;
57443;SDS011;43289;52.962;6.196;2022-12-29T04:46:12;4.75;;;1.35;;
57443;SDS011;43289;52.962;6.196;2022-12-29T04:48:38;2.67;;;0.98;;
57443;SDS011;43289;52.962;6.196;2022-12-29T04:51:04;4.95;;;1.42;;
57443;SDS011;43289;52.962;6.196;2022-12-29T04:53:30;4.63;;;1.67;;
57443;SDS011;43289;52.962;6.196;2022-12-29T04:55:57;6.53;;;1.77;;
57443;SDS011;43289;52.962;6.196;2022-12-29T04:58:23;4.90;;;2.00;;
57443;SDS011;43289;52.962;6.196;2022-12-29T05:00:50;5.20;;;1.85;;
57443;SDS011;43289;52.962;6.196;2022-12-29T05:03:16;4.88;;;1.58;;
57443;SDS011;43289;52.962;6.196;2022-12-29T05:05:45;7.05;;;2.92;;
57443;SDS011;43289;52.962;6.196;2022-12-29T05:08:11;7.55;;;1.90;;
57443;SDS011;43289;52.962;6.196;2022-12-29T05:10:37;6.40;;;1.80;;
57443;SDS011;43289;52.962;6.196;2022-12-29T05:13:03;5.10;;;1.58;;
57443;SDS011;43289;52.962;6.196;2022-12-29T05:15:29;11.18;;;2.58;;
57443;SDS011;43289;52.962;6.196;2022-12-29T05:17:55;5.70;;;2.35;;
57443;SDS011;43289;52.962;6.196;2022-12-29T05:20:21;6.32;;;2.20;;
57443;SDS011;43289;52.962;6.196;2022-12-29T05:22:47;9.25;;;2.10;;
57443;SDS011;43289;52.962;6.196;2022-12-29T05:25:13;8.13;;;2.10;;
57443;SDS011;43289;52.962;6.196;2022-12-29T05:27:39;10.63;;;2.25;;
57443;SDS011;43289;52.962;6.196;2022-12-29T05:30:05;8.82;;;2.15;;
57443;SDS011;43289;52.962;6.196;2022-12-29T05:32:31;12.63;;;2.60;;
57443;SDS011;43289;52.962;6.196;2022-12-29T05:34:58;6.75;;;2.17;;
57443;SDS011;43289;52.962;6.196;2022-12-29T05:37:24;9.98;;;2.75;;
57443;SDS011;43289;52.962;6.196;2022-12-29T05:39:50;9.93;;;2.28;;
57443;SDS011;43289;52.962;6.196;2022-12-29T05:42:16;7.85;;;2.30;;
57443;SDS011;43289;52.962;6.196;2022-12-29T05:44:42;8.98;;;2.72;;
57443;SDS011;43289;52.962;6.196;2022-12-29T05:47:08;10.25;;;1.92;;
57443;SDS011;43289;52.962;6.196;2022-12-29T05:49:34;5.60;;;2.42;;
57443;SDS011;43289;52.962;6.196;2022-12-29T05:52:00;8.70;;;2.20;;
57443;SDS011;43289;52.962;6.196;2022-12-29T05:54:26;10.93;;;2.05;;
57443;SDS011;43289;52.962;6.196;2022-12-29T05:59:52;5.82;;;1.73;;
57443;SDS011;43289;52.962;6.196;2022-12-29T06:02:18;9.05;;;1.90;;
57443;SDS011;43289;52.962;6.196;2022-12-29T06:04:44;6.07;;;2.20;;
57443;SDS011;43289;52.962;6.196;2022-12-29T06:07:10;5.18;;;2.05;;
57443;SDS011;43289;52.962;6.196;2022-12-29T06:09:36;3.47;;;1.63;;
57443;SDS011;43289;52.962;6.196;2022-12-29T06:12:02;6.97;;;1.85;;
57443;SDS011;43289;52.962;6.196;2022-12-29T06:14:28;7.85;;;1.70;;
57443;SDS011;43289;52.962;6.196;2022-12-29T06:16:54;9.02;;;2.20;;
57443;SDS011;43289;52.962;6.196;2022-12-29T06:19:20;7.63;;;1.85;;
57443;SDS011;43289;52.962;6.196;2022-12-29T06:21:46;8.77;;;2.00;;
57443;SDS011;43289;52.962;6.196;2022-12-29T06:24:12;4.78;;;1.85;;
57443;SDS011;43289;52.962;6.196;2022-12-29T06:26:38;7.38;;;1.90;;
57443;SDS011;43289;52.962;6.196;2022-12-29T06:29:05;5.43;;;2.22;;
57443;SDS011;43289;52.962;6.196;2022-12-29T06:31:33;9.90;;;2.72;;
57443;SDS011;43289;52.962;6.196;2022-12-29T06:33:59;11.15;;;2.50;;
57443;SDS011;43289;52.962;6.196;2022-12-29T06:36:25;14.98;;;3.63;;
57443;SDS011;43289;52.962;6.196;2022-12-29T06:38:51;12.73;;;2.45;;
57443;SDS011;43289;52.962;6.196;2022-12-29T06:41:18;10.40;;;2.47;;
57443;SDS011;43289;52.962;6.196;2022-12-29T06:43:44;8.65;;;2.25;;
57443;SDS011;43289;52.962;6.196;2022-12-29T06:46:10;10.63;;;2.92;;
57443;SDS011;43289;52.962;6.196;2022-12-29T06:48:36;9.38;;;2.33;;
57443;SDS011;43289;52.962;6.196;2022-12-29T06:51:02;6.63;;;1.98;;
57443;SDS011;43289;52.962;6.196;2022-12-29T06:53:28;9.98;;;2.60;;
57443;SDS011;43289;52.962;6.196;2022-12-29T06:55:54;11.80;;;2.25;;
57443;SDS011;43289;52.962;6.196;2022-12-29T06:58:21;7.85;;;2.20;;
57443;SDS011;43289;52.962;6.196;2022-12-29T07:00:47;10.60;;;2.78;;
57443;SDS011;43289;52.962;6.196;2022-12-29T07:03:13;9.50;;;3.22;;
57443;SDS011;43289;52.962;6.196;2022-12-29T07:05:39;16.55;;;3.95;;
57443;SDS011;43289;52.962;6.196;2022-12-29T07:08:05;8.32;;;2.30;;
57443;SDS011;43289;52.962;6.196;2022-12-29T07:10:31;13.10;;;2.53;;
57443;SDS011;43289;52.962;6.196;2022-12-29T07:12:57;7.60;;;2.45;;
57443;SDS011;43289;52.962;6.196;2022-12-29T07:15:23;5.15;;;1.92;;
57443;SDS011;43289;52.962;6.196;2022-12-29T07:17:49;9.98;;;2.38;;
57443;SDS011;43289;52.962;6.196;2022-12-29T07:20:16;9.20;;;1.90;;
57443;SDS011;43289;52.962;6.196;2022-12-29T07:22:42;9.48;;;2.10;;
57443;SDS011;43289;52.962;6.196;2022-12-29T07:25:08;14.18;;;3.65;;
57443;SDS011;43289;52.962;6.196;2022-12-29T07:27:34;7.75;;;2.30;;
57443;SDS011;43289;52.962;6.196;2022-12-29T07:30:00;11.10;;;2.22;;
57443;SDS011;43289;52.962;6.196;2022-12-29T07:32:26;10.93;;;2.88;;
57443;SDS011;43289;52.962;6.196;2022-12-29T07:34:53;7.88;;;2.38;;
57443;SDS011;43289;52.962;6.196;2022-12-29T07:37:19;9.32;;;2.53;;
57443;SDS011;43289;52.962;6.196;2022-12-29T07:39:45;12.35;;;3.03;;
57443;SDS011;43289;52.962;6.196;2022-12-29T07:42:11;11.35;;;2.42;;
57443;SDS011;43289;52.962;6.196;2022-12-29T07:44:37;9.25;;;3.47;;
57443;SDS011;43289;52.962;6.196;2022-12-29T07:47:03;14.68;;;3.70;;
57443;SDS011;43289;52.962;6.196;2022-12-29T07:49:29;9.57;;;2.90;;
57443;SDS011;43289;52.962;6.196;2022-12-29T07:51:55;8.77;;;2.65;;
57443;SDS011;43289;52.962;6.196;2022-12-29T07:54:21;9.95;;;3.25;;
57443;SDS011;43289;52.962;6.196;2022-12-29T07:56:47;10.98;;;2.67;;
57443;SDS011;43289;52.962;6.196;2022-12-29T07:59:13;9.77;;;2.47;;
57443;SDS011;43289;52.962;6.196;2022-12-29T08:01:40;11.23;;;3.15;;
57443;SDS011;43289;52.962;6.196;2022-12-29T08:04:06;11.43;;;2.67;;
57443;SDS011;43289;52.962;6.196;2022-12-29T08:06:32;11.25;;;3.17;;
57443;SDS011;43289;52.962;6.196;2022-12-29T08:08:58;12.15;;;3.47;;
57443;SDS011;43289;52.962;6.196;2022-12-29T08:11:25;9.55;;;3.17;;
57443;SDS011;43289;52.962;6.196;2022-12-29T08:13:51;12.73;;;3.53;;
57443;SDS011;43289;52.962;6.196;2022-12-29T08:16:17;9.48;;;2.83;;
57443;SDS011;43289;52.962;6.196;2022-12-29T08:18:43;9.43;;;3.05;;
57443;SDS011;43289;52.962;6.196;2022-12-29T08:21:09;9.77;;;2.75;;
57443;SDS011;43289;52.962;6.196;2022-12-29T08:23:39;6.43;;;2.53;;
57443;SDS011;43289;52.962;6.196;2022-12-29T08:26:05;12.32;;;4.03;;
57443;SDS011;43289;52.962;6.196;2022-12-29T08:28:34;11.65;;;3.50;;
57443;SDS011;43289;52.962;6.196;2022-12-29T08:31:01;10.25;;;2.80;;
57443;SDS011;43289;52.962;6.196;2022-12-29T08:33:28;12.90;;;2.85;;
57443;SDS011;43289;52.962;6.196;2022-12-29T08:36:04;13.23;;;3.92;;
57443;SDS011;43289;52.962;6.196;2022-12-29T08:39:11;7.93;;;3.00;;
57443;SDS011;43289;52.962;6.196;2022-12-29T08:45:16;11.15;;;3.17;;
57443;SDS011;43289;52.962;6.196;2022-12-29T08:47:42;20.95;;;4.85;;
57443;SDS011;43289;52.962;6.196;2022-12-29T08:53:54;15.02;;;3.88;;
57443;SDS011;43289;52.962;6.196;2022-12-29T08:56:20;13.45;;;3.75;;
57443;SDS011;43289;52.962;6.196;2022-12-29T08:58:48;18.27;;;3.80;;
57443;SDS011;43289;52.962;6.196;2022-12-29T09:01:16;12.38;;;3.10;;
57443;SDS011;43289;52.962;6.196;2022-12-29T09:03:45;13.98;;;4.85;;
57443;SDS011;43289;52.962;6.196;2022-12-29T09:06:11;15.05;;;3.63;;
57443;SDS011;43289;52.962;6.196;2022-12-29T09:08:38;17.67;;;3.40;;
57443;SDS011;43289;52.962;6.196;2022-12-29T09:11:10;8.75;;;2.80;;
57443;SDS011;43289;52.962;6.196;2022-12-29T09:13:40;11.88;;;2.17;;
57443;SDS011;43289;52.962;6.196;2022-12-29T09:16:23;7.85;;;2.60;;
57443;SDS011;43289;52.962;6.196;2022-12-29T09:22:28;9.57;;;2.75;;
57443;SDS011;43289;52.962;6.196;2022-12-29T09:24:59;7.20;;;2.58;;
57443;SDS011;43289;52.962;6.196;2022-12-29T09:27:25;7.30;;;2.35;;
57443;SDS011;43289;52.962;6.196;2022-12-29T09:29:57;16.60;;;2.78;;
57443;SDS011;43289;52.962;6.196;2022-12-29T09:32:25;8.68;;;2.72;;
57443;SDS011;43289;52.962;6.196;2022-12-29T09:34:52;8.02;;;2.55;;
57443;SDS011;43289;52.962;6.196;2022-12-29T09:37:21;4.47;;;1.90;;
57443;SDS011;43289;52.962;6.196;2022-12-29T09:39:48;15.30;;;2.63;;
57443;SDS011;43289;52.962;6.196;2022-12-29T09:42:25;10.75;;;3.03;;
57443;SDS011;43289;52.962;6.196;2022-12-29T09:45:03;11.25;;;3.30;;
57443;SDS011;43289;52.962;6.196;2022-12-29T09:47:31;10.60;;;2.25;;
57443;SDS011;43289;52.962;6.196;2022-12-29T09:50:01;7.43;;;2.13;;
57443;SDS011;43289;52.962;6.196;2022-12-29T09:52:42;12.57;;;4.45;;
57443;SDS011;43289;52.962;6.196;2022-12-29T09:55:16;14.45;;;2.85;;
57443;SDS011;43289;52.962;6.196;2022-12-29T09:57:45;11.55;;;3.13;;
57443;SDS011;43289;52.962;6.196;2022-12-29T10:00:22;8.35;;;3.13;;
57443;SDS011;43289;52.962;6.196;2022-12-29T10:02:50;11.90;;;3.05;;
57443;SDS011;43289;52.962;6.196;2022-12-29T10:08:26;10.77;;;2.35;;
57443;SDS011;43289;52.962;6.196;2022-12-29T10:11:17;12.32;;;3.00;;
57443;SDS011;43289;52.962;6.196;2022-12-29T10:14:02;13.15;;;2.70;;
57443;SDS011;43289;52.962;6.196;2022-12-29T10:25:23;14.85;;;2.83;;
57443;SDS011;43289;52.962;6.196;2022-12-29T10:27:55;8.40;;;2.75;;
57443;SDS011;43289;52.962;6.196;2022-12-29T10:30:22;9.75;;;2.63;;
57443;SDS011;43289;52.962;6.196;2022-12-29T10:33:01;11.25;;;3.35;;
57443;SDS011;43289;52.962;6.196;2022-12-29T10:35:37;8.35;;;1.70;;
57443;SDS011;43289;52.962;6.196;2022-12-29T10:43:29;8.57;;;3.25;;
57443;SDS011;43289;52.962;6.196;2022-12-29T10:55:25;12.57;;;3.67;;
57443;SDS011;43289;52.962;6.196;2022-12-29T10:58:24;9.10;;;2.90;;
57443;SDS011;43289;52.962;6.196;2022-12-29T11:00:53;7.70;;;2.80;;
57443;SDS011;43289;52.962;6.196;2022-12-29T11:03:39;13.65;;;3.50;;
57443;SDS011;43289;52.962;6.196;2022-12-29T11:06:09;7.40;;;2.40;;
57443;SDS011;43289;52.962;6.196;2022-12-29T11:08:38;12.43;;;3.45;;
57443;SDS011;43289;52.962;6.196;2022-12-29T11:11:08;13.23;;;3.05;;
57443;SDS011;43289;52.962;6.196;2022-12-29T11:13:38;11.23;;;3.50;;
57443;SDS011;43289;52.962;6.196;2022-12-29T11:16:22;11.05;;;3.30;;
57443;SDS011;43289;52.962;6.196;2022-12-29T11:18:58;16.10;;;3.30;;
57443;SDS011;43289;52.962;6.196;2022-12-29T11:24:14;10.50;;;2.88;;
57443;SDS011;43289;52.962;6.196;2022-12-29T11:29:52;9.32;;;2.28;;
57443;SDS011;43289;52.962;6.196;2022-12-29T11:34:44;17.13;;;3.42;;
57443;SDS011;43289;52.962;6.196;2022-12-29T11:42:46;15.68;;;3.70;;
57443;SDS011;43289;52.962;6.196;2022-12-29T11:45:30;14.68;;;3.50;;
57443;SDS011;43289;52.962;6.196;2022-12-29T11:48:18;14.90;;;4.35;;
57443;SDS011;43289;52.962;6.196;2022-12-29T11:50:55;16.98;;;4.18;;
57443;SDS011;43289;52.962;6.196;2022-12-29T11:53:58;15.10;;;3.40;;
57443;SDS011;43289;52.962;6.196;2022-12-29T11:56:44;14.50;;;4.03;;
57443;SDS011;43289;52.962;6.196;2022-12-29T12:02:02;15.68;;;5.60;;
57443;SDS011;43289;52.962;6.196;2022-12-29T12:04:32;15.38;;;4.28;;
57443;SDS011;43289;52.962;6.196;2022-12-29T12:07:13;10.40;;;2.65;;
57443;SDS011;43289;52.962;6.196;2022-12-29T12:10:24;13.70;;;4.07;;
57443;SDS011;43289;52.962;6.196;2022-12-29T12:15:41;9.35;;;2.83;;
57443;SDS011;43289;52.962;6.196;2022-12-29T12:18:09;13.27;;;3.58;;
57443;SDS011;43289;52.962;6.196;2022-12-29T12:26:32;13.73;;;3.60;;
57443;SDS011;43289;52.962;6.196;2022-12-29T12:32:05;14.93;;;3.55;;
57443;SDS011;43289;52.962;6.196;2022-12-29T12:34:42;12.68;;;2.50;;
57443;SDS011;43289;52.962;6.196;2022-12-29T12:40:38;14.65;;;3.60;;
57443;SDS011;43289;52.962;6.196;2022-12-29T12:46:36;11.35;;;2.88;;
57443;SDS011;43289;52.962;6.196;2022-12-29T12:49:20;8.15;;;2.65;;
57443;SDS011;43289;52.962;6.196;2022-12-29T12:52:10;16.20;;;3.33;;
57443;SDS011;43289;52.962;6.196;2022-12-29T13:00:32;6.75;;;2.25;;
57443;SDS011;43289;52.962;6.196;2022-12-29T13:03:10;11.60;;;2.45;;
57443;SDS011;43289;52.962;6.196;2022-12-29T13:06:09;7.78;;;1.70;;
57443;SDS011;43289;52.962;6.196;2022-12-29T13:11:44;10.63;;;2.80;;
57443;SDS011;43289;52.962;6.196;2022-12-29T13:14:20;11.32;;;2.72;;
57443;SDS011;43289;52.962;6.196;2022-12-29T13:30:18;7.55;;;2.42;;
57443;SDS011;43289;52.962;6.196;2022-12-29T13:33:22;6.22;;;2.22;;
57443;SDS011;43289;52.962;6.196;2022-12-29T13:36:00;9.52;;;2.40;;
57443;SDS011;43289;52.962;6.196;2022-12-29T13:41:01;13.88;;;3.17;;
57443;SDS011;43289;52.962;6.196;2022-12-29T13:43:37;10.15;;;2.30;;
57443;SDS011;43289;52.962;6.196;2022-12-29T13:46:12;9.95;;;2.10;;
57443;SDS011;43289;52.962;6.196;2022-12-29T13:48:48;7.72;;;2.20;;
57443;SDS011;43289;52.962;6.196;2022-12-29T13:51:16;13.13;;;4.57;;
57443;SDS011;43289;52.962;6.196;2022-12-29T14:02:46;16.13;;;4.28;;
57443;SDS011;43289;52.962;6.196;2022-12-29T14:05:30;10.52;;;2.65;;
57443;SDS011;43289;52.962;6.196;2022-12-29T14:11:35;8.43;;;2.20;;
57443;SDS011;43289;52.962;6.196;2022-12-29T14:14:23;12.02;;;2.38;;
57443;SDS011;43289;52.962;6.196;2022-12-29T14:17:23;11.63;;;3.25;;
57443;SDS011;43289;52.962;6.196;2022-12-29T14:19:54;13.05;;;2.60;;
57443;SDS011;43289;52.962;6.196;2022-12-29T14:22:28;10.40;;;2.88;;
57443;SDS011;43289;52.962;6.196;2022-12-29T14:25:02;13.65;;;3.55;;
57443;SDS011;43289;52.962;6.196;2022-12-29T14:30:05;9.38;;;2.60;;
57443;SDS011;43289;52.962;6.196;2022-12-29T14:38:20;12.60;;;2.80;;
57443;SDS011;43289;52.962;6.196;2022-12-29T14:40:50;12.48;;;2.95;;
57443;SDS011;43289;52.962;6.196;2022-12-29T14:43:24;8.93;;;2.72;;
57443;SDS011;43289;52.962;6.196;2022-12-29T14:45:56;13.43;;;2.63;;
57443;SDS011;43289;52.962;6.196;2022-12-29T14:48:33;9.70;;;2.25;;
57443;SDS011;43289;52.962;6.196;2022-12-29T14:51:16;11.93;;;2.95;;
57443;SDS011;43289;52.962;6.196;2022-12-29T14:53:46;9.10;;;2.15;;
57443;SDS011;43289;52.962;6.196;2022-12-29T14:56:19;11.65;;;3.15;;
57443;SDS011;43289;52.962;6.196;2022-12-29T14:59:08;10.35;;;2.10;;
57443;SDS011;43289;52.962;6.196;2022-12-29T15:01:46;2.95;;;1.02;;
57443;SDS011;43289;52.962;6.196;2022-12-29T15:07:12;10.07;;;2.45;;
57443;SDS011;43289;52.962;6.196;2022-12-29T15:09:41;10.43;;;2.63;;
57443;SDS011;43289;52.962;6.196;2022-12-29T15:14:38;8.23;;;2.10;;
57443;SDS011;43289;52.962;6.196;2022-12-29T15:17:22;7.20;;;2.28;;
57443;SDS011;43289;52.962;6.196;2022-12-29T15:19:49;11.63;;;2.17;;
57443;SDS011;43289;52.962;6.196;2022-12-29T15:22:18;13.82;;;2.63;;
57443;SDS011;43289;52.962;6.196;2022-12-29T15:24:44;8.07;;;2.42;;
57443;SDS011;43289;52.962;6.196;2022-12-29T15:27:14;13.40;;;2.50;;
57443;SDS011;43289;52.962;6.196;2022-12-29T15:29:45;14.07;;;3.05;;
57443;SDS011;43289;52.962;6.196;2022-12-29T15:32:22;9.60;;;2.58;;
57443;SDS011;43289;52.962;6.196;2022-12-29T15:34:56;8.38;;;3.25;;
57443;SDS011;43289;52.962;6.196;2022-12-29T15:40:36;8.85;;;2.30;;
57443;SDS011;43289;52.962;6.196;2022-12-29T15:46:31;11.93;;;2.88;;
57443;SDS011;43289;52.962;6.196;2022-12-29T15:49:11;12.65;;;2.75;;
57443;SDS011;43289;52.962;6.196;2022-12-29T15:51:43;12.20;;;3.25;;
57443;SDS011;43289;52.962;6.196;2022-12-29T15:54:18;9.68;;;2.70;;
57443;SDS011;43289;52.962;6.196;2022-12-29T15:56:55;10.95;;;2.20;;
57443;SDS011;43289;52.962;6.196;2022-12-29T15:59:32;11.63;;;2.75;;
57443;SDS011;43289;52.962;6.196;2022-12-29T16:02:07;8.40;;;3.03;;
57443;SDS011;43289;52.962;6.196;2022-12-29T16:04:44;12.30;;;2.95;;
57443;SDS011;43289;52.962;6.196;2022-12-29T16:10:21;14.88;;;2.92;;
57443;SDS011;43289;52.962;6.196;2022-12-29T16:12:48;10.60;;;2.67;;
57443;SDS011;43289;52.962;6.196;2022-12-29T16:15:15;22.73;;;3.83;;
57443;SDS011;43289;52.962;6.196;2022-12-29T16:17:48;9.80;;;3.20;;
57443;SDS011;43289;52.962;6.196;2022-12-29T16:20:24;10.18;;;2.47;;
57443;SDS011;43289;52.962;6.196;2022-12-29T16:23:08;11.27;;;2.55;;
57443;SDS011;43289;52.962;6.196;2022-12-29T16:25:38;12.90;;;2.63;;
57443;SDS011;43289;52.962;6.196;2022-12-29T16:28:19;9.07;;;2.65;;
57443;SDS011;43289;52.962;6.196;2022-12-29T16:37:44;8.05;;;2.15;;
57443;SDS011;43289;52.962;6.196;2022-12-29T16:43:34;5.43;;;1.60;;
57443;SDS011;43289;52.962;6.196;2022-12-29T16:48:52;4.82;;;1.27;;
57443;SDS011;43289;52.962;6.196;2022-12-29T16:51:29;8.57;;;1.70;;
57443;SDS011;43289;52.962;6.196;2022-12-29T16:53:56;4.60;;;1.83;;
57443;SDS011;43289;52.962;6.196;2022-12-29T16:56:24;6.70;;;1.52;;
57443;SDS011;43289;52.962;6.196;2022-12-29T16:58:58;4.13;;;1.80;;
57443;SDS011;43289;52.962;6.196;2022-12-29T17:01:47;8.48;;;1.40;;
57443;SDS011;43289;52.962;6.196;2022-12-29T17:04:18;6.80;;;1.20;;
57443;SDS011;43289;52.962;6.196;2022-12-29T17:06:53;6.60;;;1.40;;
57443;SDS011;43289;52.962;6.196;2022-12-29T17:09:27;7.00;;;1.40;;
57443;SDS011;43289;52.962;6.196;2022-12-29T17:14:44;5.55;;;1.40;;
57443;SDS011;43289;52.962;6.196;2022-12-29T17:17:35;7.85;;;1.83;;
57443;SDS011;43289;52.962;6.196;2022-12-29T17:20:08;7.05;;;1.67;;
57443;SDS011;43289;52.962;6.196;2022-12-29T17:22:43;11.63;;;2.67;;
57443;SDS011;43289;52.962;6.196;2022-12-29T17:25:34;9.07;;;2.70;;
57443;SDS011;43289;52.962;6.196;2022-12-29T17:31:04;6.80;;;2.75;;
57443;SDS011;43289;52.962;6.196;2022-12-29T17:33:46;12.13;;;2.95;;
57443;SDS011;43289;52.962;6.196;2022-12-29T17:36:45;10.32;;;3.45;;
57443;SDS011;43289;52.962;6.196;2022-12-29T17:39:36;10.32;;;2.70;;
57443;SDS011;43289;52.962;6.196;2022-12-29T17:45:28;9.07;;;2.65;;
57443;SDS011;43289;52.962;6.196;2022-12-29T17:48:04;12.77;;;3.30;;
57443;SDS011;43289;52.962;6.196;2022-12-29T17:50:30;12.27;;;3.10;;
57443;SDS011;43289;52.962;6.196;2022-12-29T17:52:59;12.18;;;3.13;;
57443;SDS011;43289;52.962;6.196;2022-12-29T17:55:42;12.05;;;3.78;;
57443;SDS011;43289;52.962;6.196;2022-12-29T17:58:24;14.30;;;3.03;;
57443;SDS011;43289;52.962;6.196;2022-12-29T21:10:44;11.10;;;3.45;;
57443;SDS011;43289;52.962;6.196;2022-12-29T21:13:11;10.38;;;3.40;;
57443;SDS011;43289;52.962;6.196;2022-12-29T21:15:37;21.23;;;4.00;;
57443;SDS011;43289;52.962;6.196;2022-12-29T21:18:03;9.73;;;2.88;;
57443;SDS011;43289;52.962;6.196;2022-12-29T21:20:29;15.13;;;3.20;;
57443;SDS011;43289;52.962;6.196;2022-12-29T21:22:59;15.70;;;4.25;;
57443;SDS011;43289;52.962;6.196;2022-12-29T21:25:26;15.52;;;3.05;;
57443;SDS011;43289;52.962;6.196;2022-12-29T21:28:00;17.17;;;3.90;;
57443;SDS011;43289;52.962;6.196;2022-12-29T21:30:26;9.43;;;2.90;;